createdAt,value
2022-10-11T00:00:32.683Z,3.22
2022-10-11T00:01:07.400Z,3.85
2022-10-11T00:01:39.612Z,2.75
2022-10-11T00:02:11.781Z,4.50
2022-10-11T00:02:46.498Z,3.35
2022-10-11T00:03:18.710Z,3.40
2022-10-11T00:03:50.780Z,3.00
2022-10-11T00:04:28.063Z,4.15
2022-10-11T00:05:00.228Z,3.97
2022-10-11T00:05:32.523Z,3.47
2022-10-11T00:06:08.014Z,3.40
2022-10-11T00:06:43.383Z,3.30
2022-10-11T00:07:15.457Z,4.20
2022-10-11T00:07:50.095Z,3.10
2022-10-11T00:08:22.408Z,3.45
2022-10-11T00:08:54.483Z,3.53
2022-10-11T00:09:29.206Z,3.10
2022-10-11T00:10:01.338Z,3.53
2022-10-11T00:10:33.858Z,3.35
2022-10-11T00:11:10.063Z,3.55
2022-10-11T00:11:42.966Z,3.00
2022-10-11T00:12:15.047Z,3.40
2022-10-11T00:12:52.394Z,2.92
2022-10-11T00:13:24.479Z,2.70
2022-10-11T00:13:56.606Z,3.40
2022-10-11T00:14:28.797Z,3.35
2022-10-11T00:15:03.537Z,2.75
2022-10-11T00:15:35.731Z,2.75
2022-10-11T00:16:09.876Z,2.53
2022-10-11T00:16:45.288Z,3.45
2022-10-11T00:17:17.403Z,2.97
2022-10-11T00:17:49.824Z,2.50
2022-10-11T00:18:25.002Z,3.30
2022-10-11T00:18:57.112Z,3.28
2022-10-11T00:19:32.338Z,2.92
2022-10-11T00:20:07.862Z,2.90
2022-10-11T00:20:39.991Z,3.22
2022-10-11T00:21:14.642Z,3.10
2022-10-11T00:21:50.005Z,3.60
2022-10-11T00:22:22.187Z,2.92
2022-10-11T00:22:54.241Z,3.15
2022-10-11T00:23:28.935Z,3.38
2022-10-11T00:24:01.019Z,3.50
2022-10-11T00:24:35.735Z,2.90
2022-10-11T00:25:10.175Z,2.35
2022-10-11T00:25:42.367Z,3.00
2022-10-11T00:26:17.843Z,3.00
2022-10-11T00:26:49.947Z,2.97
2022-10-11T00:27:22.055Z,3.20
2022-10-11T00:27:57.331Z,3.03
2022-10-11T00:28:29.920Z,3.05
2022-10-11T00:29:02.085Z,3.35
2022-10-11T00:29:36.750Z,2.95
2022-10-11T00:30:10.126Z,3.42
2022-10-11T00:30:43.439Z,2.95
2022-10-11T00:31:18.583Z,2.88
2022-10-11T00:31:50.724Z,2.70
2022-10-11T00:32:22.873Z,3.55
2022-10-11T00:32:57.518Z,3.40
2022-10-11T00:33:29.593Z,3.47
2022-10-11T00:34:01.935Z,3.10
2022-10-11T00:34:36.618Z,3.35
2022-10-11T00:35:12.374Z,2.90
2022-10-11T00:35:44.717Z,3.58
2022-10-11T00:36:17.619Z,3.80
2022-10-11T00:36:52.266Z,2.97
2022-10-11T00:37:24.346Z,3.45
2022-10-11T00:37:57.182Z,2.88
2022-10-11T00:38:31.672Z,3.58
2022-10-11T00:39:06.914Z,3.28
2022-10-11T00:39:39.126Z,2.75
2022-10-11T00:40:17.628Z,2.45
2022-10-11T00:40:52.331Z,2.47
2022-10-11T00:41:24.389Z,2.88
2022-10-11T00:41:56.793Z,3.17
2022-10-11T00:42:31.451Z,3.90
2022-10-11T00:43:03.892Z,3.15
2022-10-11T00:43:36.869Z,3.72
2022-10-11T00:44:17.068Z,3.00
2022-10-11T00:44:51.017Z,3.40
2022-10-11T00:45:58.839Z,2.63
2022-10-11T00:46:35.272Z,3.10
2022-10-11T00:47:10.797Z,2.80
2022-10-11T00:47:42.898Z,3.25
2022-10-11T00:48:19.015Z,2.92
2022-10-11T00:48:58.704Z,2.78
2022-10-11T00:49:37.211Z,3.10
2022-10-11T00:50:11.130Z,2.72
2022-10-11T00:50:46.033Z,2.72
2022-10-11T00:51:21.385Z,3.00
2022-10-11T00:51:57.498Z,2.78
2022-10-11T00:52:35.684Z,2.67
2022-10-11T00:53:11.468Z,2.92
2022-10-11T00:53:44.253Z,2.83
2022-10-11T00:54:21.803Z,3.13
2022-10-11T00:54:54.026Z,3.35
2022-10-11T00:55:29.601Z,3.30
2022-10-11T00:56:09.684Z,2.75
2022-10-11T00:56:44.178Z,3.90
2022-10-11T00:57:20.293Z,3.50
2022-10-11T00:57:56.357Z,3.13
2022-10-11T00:58:28.766Z,3.03
2022-10-11T00:59:04.424Z,3.00
2022-10-11T00:59:42.708Z,3.30
2022-10-11T01:00:16.459Z,3.88
2022-10-11T01:00:48.690Z,3.97
2022-10-11T01:01:23.580Z,3.03
2022-10-11T01:01:56.034Z,3.20
2022-10-11T01:02:30.938Z,3.05
2022-10-11T01:03:04.948Z,3.45
2022-10-11T01:03:38.943Z,3.53
2022-10-11T01:04:13.696Z,3.20
2022-10-11T01:04:57.322Z,3.08
2022-10-11T01:05:40.064Z,2.75
2022-10-11T01:06:14.738Z,2.58
2022-10-11T01:06:47.807Z,3.65
2022-10-11T01:07:23.939Z,3.35
2022-10-11T01:07:56.336Z,2.70
2022-10-11T01:08:28.601Z,2.75
2022-10-11T01:09:03.281Z,3.25
2022-10-11T01:09:35.540Z,3.70
2022-10-11T01:10:08.441Z,3.15
2022-10-11T01:10:40.590Z,3.60
2022-10-11T01:11:17.584Z,2.58
2022-10-11T01:11:53.046Z,3.03
2022-10-11T01:12:32.033Z,3.10
2022-10-11T01:13:12.665Z,3.10
2022-10-11T01:13:54.866Z,3.33
2022-10-11T01:14:45.717Z,2.83
2022-10-11T01:15:25.786Z,2.40
2022-10-11T01:16:05.971Z,3.25
2022-10-11T01:17:25.427Z,3.33
2022-10-11T01:18:04.314Z,3.53
2022-10-11T01:18:51.793Z,3.22
2022-10-11T01:19:44.714Z,2.55
2022-10-11T01:20:45.854Z,2.95
2022-10-11T01:21:31.471Z,2.92
2022-10-11T01:22:21.689Z,3.10
2022-10-11T01:23:24.324Z,3.30
2022-10-11T01:24:32.986Z,3.30
2022-10-11T01:25:19.619Z,3.42
2022-10-11T01:26:18.624Z,3.42
2022-10-11T01:27:18.886Z,3.10
2022-10-11T01:28:20.879Z,2.90
2022-10-11T01:29:04.014Z,2.85
2022-10-11T01:29:49.578Z,3.33
2022-10-11T01:30:28.681Z,2.70
2022-10-11T01:31:07.134Z,2.70
2022-10-11T01:31:46.795Z,3.33
2022-10-11T01:32:25.946Z,3.13
2022-10-11T01:33:13.307Z,2.45
2022-10-11T01:33:54.721Z,3.03
2022-10-11T01:34:34.708Z,3.35
2022-10-11T01:35:10.807Z,3.35
2022-10-11T01:35:52.403Z,3.53
2022-10-11T01:36:32.075Z,3.20
2022-10-11T01:37:13.885Z,3.38
2022-10-11T01:37:51.710Z,3.40
2022-10-11T01:38:28.098Z,2.78
2022-10-11T01:39:07.799Z,3.20
2022-10-11T01:39:46.549Z,3.85
2022-10-11T01:40:25.020Z,3.35
2022-10-11T01:41:03.077Z,3.28
2022-10-11T01:41:38.744Z,3.22
2022-10-11T01:42:13.364Z,2.75
2022-10-11T01:42:48.633Z,3.40
2022-10-11T01:43:22.965Z,3.40
2022-10-11T01:43:59.121Z,3.30
2022-10-11T01:44:34.931Z,3.28
2022-10-11T01:45:13.249Z,3.15
2022-10-11T01:45:52.647Z,3.53
2022-10-11T01:46:25.250Z,3.22
2022-10-11T01:46:57.408Z,2.75
2022-10-11T01:47:32.070Z,2.83
2022-10-11T01:48:06.712Z,2.72
2022-10-11T01:48:48.374Z,3.17
2022-10-11T01:49:23.602Z,2.88
2022-10-11T01:49:57.407Z,3.13
2022-10-11T01:50:41.729Z,2.70
2022-10-11T01:51:16.922Z,3.10
2022-10-11T01:51:53.156Z,3.03
2022-10-11T01:52:27.314Z,3.85
2022-10-11T01:53:10.484Z,2.92
2022-10-11T01:54:05.281Z,3.28
2022-10-11T01:55:50.822Z,3.33
2022-10-11T01:56:36.786Z,2.63
2022-10-11T01:57:44.034Z,3.40
2022-10-11T01:58:29.832Z,3.25
2022-10-11T01:59:15.934Z,3.80
2022-10-11T02:00:03.511Z,3.05
2022-10-11T02:00:51.858Z,2.88
2022-10-11T02:01:31.059Z,3.85
2022-10-11T02:02:18.575Z,3.70
2022-10-11T02:03:05.409Z,3.60
2022-10-11T02:03:48.423Z,3.80
2022-10-11T02:04:30.026Z,3.85
2022-10-11T02:05:12.263Z,3.65
2022-10-11T02:05:49.980Z,3.20
2022-10-11T02:06:32.509Z,3.13
2022-10-11T02:07:14.118Z,5.05
2022-10-11T02:07:53.149Z,4.15
2022-10-11T02:08:32.122Z,3.97
2022-10-11T02:09:15.210Z,3.95
2022-10-11T02:09:52.931Z,4.28
2022-10-11T02:10:33.433Z,3.78
2022-10-11T02:11:10.127Z,3.83
2022-10-11T02:11:42.920Z,4.03
2022-10-11T02:12:26.292Z,3.90
2022-10-11T02:13:04.306Z,3.40
2022-10-11T02:13:44.053Z,4.20
2022-10-11T02:14:20.760Z,3.45
2022-10-11T02:14:54.339Z,4.15
2022-10-11T02:15:32.402Z,4.70
2022-10-11T02:16:12.827Z,3.53
2022-10-11T02:17:26.055Z,3.70
2022-10-11T02:18:02.504Z,3.67
2022-10-11T02:18:40.098Z,3.65
2022-10-11T02:19:19.795Z,3.40
2022-10-11T02:19:54.709Z,5.45
2022-10-11T02:20:30.690Z,4.43
2022-10-11T02:21:08.783Z,3.67
2022-10-11T02:21:44.656Z,3.78
2022-10-11T02:22:23.030Z,6.93
2022-10-11T02:23:02.561Z,3.50
2022-10-11T02:23:40.934Z,6.82
2022-10-11T02:24:17.437Z,5.40
2022-10-11T02:24:56.501Z,4.43
2022-10-11T02:25:33.390Z,4.22
2022-10-11T02:26:09.865Z,4.57
2022-10-11T02:26:47.481Z,4.00
2022-10-11T02:27:23.395Z,3.85
2022-10-11T02:28:02.371Z,4.22
2022-10-11T02:28:37.472Z,4.55
2022-10-11T02:29:15.206Z,4.55
2022-10-11T02:29:52.738Z,4.20
2022-10-11T02:30:25.085Z,4.25
2022-10-11T02:31:00.475Z,3.30
2022-10-11T02:31:39.220Z,3.97
2022-10-11T02:32:12.706Z,3.95
2022-10-11T02:32:47.797Z,3.88
2022-10-11T02:33:29.517Z,4.57
2022-10-11T02:34:09.949Z,3.97
2022-10-11T02:35:20.606Z,3.75
2022-10-11T02:35:59.184Z,3.70
2022-10-11T02:36:41.956Z,3.40
2022-10-11T02:37:22.106Z,3.78
2022-10-11T02:37:59.262Z,3.35
2022-10-11T02:38:37.679Z,3.63
2022-10-11T02:39:18.121Z,4.07
2022-10-11T02:40:31.378Z,4.63
2022-10-11T02:41:12.306Z,3.97
2022-10-11T02:41:46.815Z,3.40
2022-10-11T02:42:23.968Z,4.32
2022-10-11T02:43:03.787Z,4.30
2022-10-11T02:43:41.670Z,3.55
2022-10-11T02:44:20.149Z,4.22
2022-10-11T02:45:01.270Z,3.75
2022-10-11T02:45:37.980Z,3.58
2022-10-11T02:46:11.367Z,3.60
2022-10-11T02:46:50.239Z,4.43
2022-10-11T02:47:22.558Z,3.38
2022-10-11T02:47:55.263Z,3.72
2022-10-11T02:48:31.119Z,3.55
2022-10-11T02:49:04.138Z,3.55
2022-10-11T02:49:37.029Z,3.75
2022-10-11T02:50:13.523Z,3.00
2022-10-11T02:50:45.871Z,3.92
2022-10-11T02:51:18.747Z,3.08
2022-10-11T02:51:53.414Z,3.28
2022-10-11T02:52:25.791Z,3.47
2022-10-11T02:52:57.871Z,3.55
2022-10-11T02:53:32.910Z,3.63
2022-10-11T02:54:05.453Z,3.28
2022-10-11T02:54:37.581Z,3.45
2022-10-11T02:55:14.264Z,4.22
2022-10-11T02:55:47.892Z,3.80
2022-10-11T02:56:19.995Z,3.47
2022-10-11T02:56:54.962Z,3.63
2022-10-11T02:57:27.122Z,4.22
2022-10-11T02:58:00.302Z,3.50
2022-10-11T02:58:34.953Z,4.00
2022-10-11T02:59:07.036Z,4.28
2022-10-11T02:59:39.118Z,4.32
2022-10-11T03:00:15.581Z,4.63
2022-10-11T03:00:48.050Z,3.67
2022-10-11T03:01:20.265Z,4.65
2022-10-11T03:01:57.733Z,4.03
2022-10-11T03:02:29.850Z,4.32
2022-10-11T03:03:01.936Z,4.15
2022-10-11T03:03:36.578Z,4.18
2022-10-11T03:04:08.686Z,3.60
2022-10-11T03:04:40.766Z,3.60
2022-10-11T03:05:15.414Z,3.50
2022-10-11T03:05:47.551Z,3.63
2022-10-11T03:06:19.679Z,3.42
2022-10-11T03:06:54.339Z,3.78
2022-10-11T03:07:26.610Z,4.70
2022-10-11T03:07:58.700Z,3.42
2022-10-11T03:08:33.455Z,3.50
2022-10-11T03:09:05.643Z,6.75
2022-10-11T03:09:37.714Z,4.68
2022-10-11T03:10:13.165Z,3.72
2022-10-11T03:10:45.336Z,4.32
2022-10-11T03:11:17.443Z,4.05
2022-10-11T03:11:49.638Z,3.65
2022-10-11T03:12:24.540Z,4.53
2022-10-11T03:12:56.785Z,4.50
2022-10-11T03:13:28.946Z,3.78
2022-10-11T03:14:03.635Z,5.03
2022-10-11T03:14:35.700Z,4.82
2022-10-11T03:15:08.503Z,5.18
2022-10-11T03:15:43.143Z,4.65
2022-10-11T03:16:15.417Z,5.30
2022-10-11T03:16:47.668Z,4.20
2022-10-11T03:17:35.985Z,4.65
2022-10-11T03:18:08.994Z,4.90
2022-10-11T03:18:41.075Z,4.75
2022-10-11T03:19:19.179Z,5.13
2022-10-11T03:19:51.620Z,5.97
2022-10-11T03:20:24.408Z,5.32
2022-10-11T03:20:56.516Z,4.80
2022-10-11T03:21:31.225Z,4.22
2022-10-11T03:22:03.339Z,4.05
2022-10-11T03:22:35.626Z,4.90
2022-10-11T03:23:10.333Z,5.75
2022-10-11T03:23:42.708Z,4.95
2022-10-11T03:24:14.812Z,4.03
2022-10-11T03:24:46.916Z,5.95
2022-10-11T03:25:21.590Z,6.25
2022-10-11T03:25:53.729Z,5.10
2022-10-11T03:26:25.851Z,4.82
2022-10-11T03:26:57.946Z,4.43
2022-10-11T03:27:32.615Z,5.45
2022-10-11T03:28:05.355Z,6.18
2022-10-11T03:28:37.486Z,4.97
2022-10-11T03:29:12.208Z,4.68
2022-10-11T03:29:44.295Z,4.85
2022-10-11T03:30:18.285Z,4.72
2022-10-11T03:30:54.644Z,4.65
2022-10-11T03:31:26.959Z,5.88
2022-10-11T03:31:59.370Z,5.78
2022-10-11T03:32:34.039Z,5.97
2022-10-11T03:33:08.730Z,4.72
2022-10-11T03:33:40.863Z,4.72
2022-10-11T03:34:13.063Z,5.20
2022-10-11T03:34:47.731Z,6.05
2022-10-11T03:35:19.934Z,4.75
2022-10-11T03:35:52.041Z,4.95
2022-10-11T03:36:26.702Z,5.57
2022-10-11T03:36:58.844Z,4.35
2022-10-11T03:37:30.947Z,4.85
2022-10-11T03:38:06.000Z,4.63
2022-10-11T03:38:39.106Z,5.40
2022-10-11T03:39:11.254Z,5.40
2022-10-11T03:39:45.981Z,5.93
2022-10-11T03:40:18.203Z,4.45
2022-10-11T03:40:50.310Z,4.80
2022-10-11T03:41:25.094Z,4.25
2022-10-11T03:41:57.235Z,4.68
2022-10-11T03:42:29.818Z,4.25
2022-10-11T03:43:02.065Z,4.47
2022-10-11T03:43:37.378Z,4.82
2022-10-11T03:44:09.460Z,6.93
2022-10-11T03:44:42.290Z,4.15
2022-10-11T03:45:17.029Z,4.82
2022-10-11T03:45:49.109Z,5.20
2022-10-11T03:46:21.402Z,4.68
2022-10-11T03:46:56.166Z,5.65
2022-10-11T03:47:28.251Z,4.10
2022-10-11T03:48:03.178Z,4.07
2022-10-11T03:48:37.882Z,4.65
2022-10-11T03:49:09.979Z,4.85
2022-10-11T03:49:43.778Z,5.05
2022-10-11T03:50:18.683Z,4.65
2022-10-11T03:50:50.794Z,4.13
2022-10-11T03:51:22.899Z,4.72
2022-10-11T03:51:57.596Z,6.85
2022-10-11T03:52:29.758Z,4.75
2022-10-11T03:53:01.889Z,5.57
2022-10-11T03:53:36.671Z,4.50
2022-10-11T03:54:08.743Z,5.18
2022-10-11T03:54:40.819Z,5.15
2022-10-11T03:55:15.548Z,5.07
2022-10-11T03:55:53.183Z,4.22
2022-10-11T03:56:25.249Z,4.35
2022-10-11T03:56:59.958Z,4.47
2022-10-11T03:57:32.115Z,4.95
2022-10-11T03:58:04.187Z,4.60
2022-10-11T03:58:38.886Z,4.05
2022-10-11T03:59:10.958Z,6.30
2022-10-11T03:59:43.087Z,4.93
2022-10-11T04:00:18.153Z,5.25
2022-10-11T04:00:50.652Z,4.68
2022-10-11T04:01:25.398Z,6.03
2022-10-11T04:01:57.527Z,3.85
2022-10-11T04:02:29.693Z,4.28
2022-10-11T04:03:07.085Z,4.50
2022-10-11T04:03:39.194Z,4.57
2022-10-11T04:04:11.261Z,5.13
2022-10-11T04:04:46.195Z,4.80
2022-10-11T04:05:18.566Z,6.40
2022-10-11T04:05:50.649Z,4.88
2022-10-11T04:06:25.446Z,4.95
2022-10-11T04:06:57.559Z,4.85
2022-10-11T04:07:29.761Z,4.10
2022-10-11T04:08:07.374Z,4.70
2022-10-11T04:08:43.262Z,4.90
2022-10-11T04:09:15.505Z,5.88
2022-10-11T04:09:50.211Z,5.80
2022-10-11T04:10:22.647Z,6.90
2022-10-11T04:10:54.770Z,4.32
2022-10-11T04:11:29.738Z,4.32
2022-10-11T04:12:02.023Z,4.88
2022-10-11T04:12:34.838Z,4.95
2022-10-11T04:13:09.630Z,4.90
2022-10-11T04:13:41.888Z,4.63
2022-10-11T04:14:13.970Z,4.57
2022-10-11T04:14:48.676Z,4.47
2022-10-11T04:15:20.815Z,5.85
2022-10-11T04:15:52.944Z,5.68
2022-10-11T04:16:27.689Z,5.38
2022-10-11T04:17:00.575Z,5.85
2022-10-11T04:17:32.838Z,6.65
2022-10-11T04:18:11.126Z,5.07
2022-10-11T04:18:43.194Z,5.22
2022-10-11T04:19:15.307Z,5.18
2022-10-11T04:19:49.971Z,5.55
2022-10-11T04:20:22.100Z,6.10
2022-10-11T04:20:54.246Z,4.70
2022-10-11T04:21:28.955Z,5.60
2022-10-11T04:22:01.042Z,5.10
2022-10-11T04:22:33.586Z,8.13
2022-10-11T04:23:08.320Z,7.63
2022-10-11T04:23:40.384Z,7.97
2022-10-11T04:24:12.873Z,9.35
2022-10-11T04:24:47.522Z,12.90
2022-10-11T04:25:19.638Z,7.72
2022-10-11T04:25:51.810Z,8.02
2022-10-11T04:26:27.659Z,8.32
2022-10-11T04:27:00.119Z,7.30
2022-10-11T04:27:32.344Z,5.18
2022-10-11T04:28:08.141Z,6.20
2022-10-11T04:28:40.324Z,5.95
2022-10-11T04:29:12.479Z,5.35
2022-10-11T04:29:47.152Z,4.93
2022-10-11T04:30:19.502Z,6.10
2022-10-11T04:30:51.614Z,5.13
2022-10-11T04:31:26.511Z,5.45
2022-10-11T04:31:58.644Z,5.78
2022-10-11T04:32:30.782Z,5.57
2022-10-11T04:33:05.416Z,4.72
2022-10-11T04:33:40.078Z,4.68
2022-10-11T04:34:12.270Z,6.50
2022-10-11T04:34:47.097Z,5.75
2022-10-11T04:35:19.231Z,5.22
2022-10-11T04:35:54.374Z,4.85
2022-10-11T04:36:29.066Z,5.57
2022-10-11T04:37:01.219Z,6.38
2022-10-11T04:37:33.449Z,5.50
2022-10-11T04:38:08.167Z,5.82
2022-10-11T04:38:40.244Z,6.47
2022-10-11T04:39:13.085Z,4.80
2022-10-11T04:39:47.749Z,5.30
2022-10-11T04:40:19.868Z,6.13
2022-10-11T04:40:51.980Z,4.22
2022-10-11T04:41:26.640Z,6.00
2022-10-11T04:41:58.805Z,5.07
2022-10-11T04:42:30.905Z,6.28
2022-10-11T04:43:05.558Z,4.72
2022-10-11T04:43:38.194Z,4.05
2022-10-11T04:44:10.270Z,4.95
2022-10-11T04:44:44.913Z,5.55
2022-10-11T04:45:17.447Z,5.25
2022-10-11T04:45:52.318Z,4.75
2022-10-11T04:46:30.308Z,5.25
2022-10-11T04:47:02.398Z,5.60
2022-10-11T04:47:34.522Z,4.88
2022-10-11T04:48:09.626Z,6.45
2022-10-11T04:48:44.742Z,7.50
2022-10-11T04:49:16.849Z,5.70
2022-10-11T04:49:51.501Z,6.10
2022-10-11T04:50:23.606Z,6.75
2022-10-11T04:50:55.815Z,4.60
2022-10-11T04:51:31.193Z,5.80
2022-10-11T04:52:03.356Z,6.38
2022-10-11T04:52:35.506Z,6.60
2022-10-11T04:53:10.981Z,6.22
2022-10-11T04:53:43.270Z,6.68
2022-10-11T04:54:15.794Z,6.68
2022-10-11T04:54:50.527Z,6.97
2022-10-11T04:55:22.590Z,5.93
2022-10-11T04:56:01.080Z,5.82
2022-10-11T04:56:36.105Z,6.72
2022-10-11T04:57:08.218Z,5.60
2022-10-11T04:57:42.960Z,7.43
2022-10-11T04:58:15.022Z,5.30
2022-10-11T04:58:48.310Z,7.20
2022-10-11T04:59:23.051Z,6.03
2022-10-11T04:59:55.114Z,4.90
2022-10-11T05:00:29.763Z,7.00
2022-10-11T05:01:01.893Z,5.90
2022-10-11T05:01:34.059Z,7.03
2022-10-11T05:02:08.782Z,6.28
2022-10-11T05:02:40.963Z,4.80
2022-10-11T05:03:13.060Z,5.88
2022-10-11T05:03:50.584Z,5.93
2022-10-11T05:04:22.774Z,6.03
2022-10-11T05:04:55.032Z,5.50
2022-10-11T05:05:29.829Z,6.50
2022-10-11T05:06:05.600Z,7.50
2022-10-11T05:06:38.175Z,12.40
2022-10-11T05:07:12.846Z,7.07
2022-10-11T05:07:44.906Z,7.13
2022-10-11T05:08:17.034Z,6.65
2022-10-11T05:08:51.663Z,6.07
2022-10-11T05:09:24.154Z,4.97
2022-10-11T05:09:56.319Z,6.80
2022-10-11T05:10:31.017Z,5.20
2022-10-11T05:11:05.830Z,8.45
2022-10-11T05:11:40.475Z,7.38
2022-10-11T05:12:12.610Z,5.65
2022-10-11T05:12:44.728Z,8.55
2022-10-11T05:13:19.374Z,8.38
2022-10-11T05:13:51.480Z,7.22
2022-10-11T05:14:26.217Z,5.47
2022-10-11T05:14:59.654Z,6.57
2022-10-11T05:15:31.751Z,5.78
2022-10-11T05:16:10.804Z,5.32
2022-10-11T05:16:43.738Z,5.03
2022-10-11T05:17:15.818Z,6.35
2022-10-11T05:17:50.507Z,6.30
2022-10-11T05:18:23.099Z,6.57
2022-10-11T05:18:57.959Z,8.85
2022-10-11T05:19:32.738Z,6.47
2022-10-11T05:20:05.974Z,5.70
2022-10-11T05:20:38.059Z,5.00
2022-10-11T05:21:21.145Z,5.55
2022-10-11T05:21:55.118Z,5.22
2022-10-11T05:22:27.191Z,6.30
2022-10-11T05:23:01.838Z,5.38
2022-10-11T05:23:35.975Z,5.40
2022-10-11T05:24:08.357Z,5.75
2022-10-11T05:24:43.040Z,8.55
2022-10-11T05:25:15.291Z,9.25
2022-10-11T05:25:47.457Z,5.88
2022-10-11T05:26:23.060Z,6.60
2022-10-11T05:26:56.330Z,8.27
2022-10-11T05:27:30.768Z,5.82
2022-10-11T05:28:05.497Z,5.00
2022-10-11T05:28:37.951Z,6.32
2022-10-11T05:29:10.053Z,4.78
2022-10-11T05:29:45.867Z,5.35
2022-10-11T05:30:18.096Z,4.63
2022-10-11T05:30:50.231Z,5.35
2022-10-11T05:31:24.969Z,4.57
2022-10-11T05:31:57.170Z,5.35
2022-10-11T05:32:29.363Z,5.65
2022-10-11T05:33:04.147Z,5.38
2022-10-11T05:33:36.432Z,5.32
2022-10-11T05:34:13.689Z,4.55
2022-10-11T05:34:45.918Z,6.40
2022-10-11T05:35:18.219Z,5.13
2022-10-11T05:35:53.042Z,5.65
2022-10-11T05:36:25.122Z,5.45
2022-10-11T05:36:57.545Z,6.70
2022-10-11T05:37:32.597Z,6.55
2022-10-11T05:38:04.762Z,5.68
2022-10-11T05:38:37.489Z,5.47
2022-10-11T05:39:12.171Z,6.05
2022-10-11T05:39:44.257Z,6.32
2022-10-11T05:40:16.467Z,6.78
2022-10-11T05:40:52.226Z,7.22
2022-10-11T05:41:24.314Z,7.85
2022-10-11T05:41:57.002Z,5.70
2022-10-11T05:42:31.677Z,5.22
2022-10-11T05:43:04.141Z,6.53
2022-10-11T05:43:36.238Z,6.70
2022-10-11T05:44:11.257Z,5.47
2022-10-11T05:44:43.337Z,7.68
2022-10-11T05:45:15.579Z,7.10
2022-10-11T05:45:50.299Z,8.60
2022-10-11T05:46:22.486Z,8.85
2022-10-11T05:46:54.583Z,9.80
2022-10-11T05:47:29.307Z,7.88
2022-10-11T05:48:01.381Z,8.23
2022-10-11T05:48:33.750Z,6.53
2022-10-11T05:49:08.450Z,6.72
2022-10-11T05:49:43.206Z,9.13
2022-10-11T05:50:15.569Z,7.63
2022-10-11T05:50:50.341Z,7.35
2022-10-11T05:51:22.546Z,6.97
2022-10-11T05:51:54.759Z,8.10
2022-10-11T05:52:29.643Z,9.30
2022-10-11T05:53:02.106Z,10.00
2022-10-11T05:53:34.271Z,10.23
2022-10-11T05:54:09.019Z,8.57
2022-10-11T05:54:41.140Z,7.10
2022-10-11T05:55:13.524Z,8.35
2022-10-11T05:55:48.466Z,9.80
2022-10-11T05:56:22.631Z,9.00
2022-10-11T05:56:54.701Z,9.80
2022-10-11T05:57:29.501Z,12.73
2022-10-11T05:58:01.610Z,9.00
2022-10-11T05:58:35.647Z,13.05
2022-10-11T05:59:10.321Z,11.10
2022-10-11T05:59:42.688Z,11.45
2022-10-11T06:00:15.683Z,7.95
2022-10-11T06:00:50.505Z,8.05
2022-10-11T06:01:24.432Z,7.20
2022-10-11T06:01:56.658Z,5.90
2022-10-11T06:02:31.381Z,6.65
2022-10-11T06:03:03.788Z,5.35
2022-10-11T06:03:35.865Z,6.00
2022-10-11T06:04:11.873Z,5.57
2022-10-11T06:04:46.738Z,7.47
2022-10-11T06:05:18.951Z,7.03
2022-10-11T06:05:57.024Z,7.40
2022-10-11T06:06:29.521Z,6.07
2022-10-11T06:07:01.747Z,7.13
2022-10-11T06:07:38.794Z,4.60
2022-10-11T06:08:11.277Z,5.63
2022-10-11T06:08:43.766Z,5.97
2022-10-11T06:09:18.460Z,6.75
2022-10-11T06:09:51.706Z,6.18
2022-10-11T06:10:23.979Z,5.78
2022-10-11T06:10:58.638Z,9.40
2022-10-11T06:11:30.740Z,6.07
2022-10-11T06:12:03.588Z,6.78
2022-10-11T06:12:38.871Z,6.75
2022-10-11T06:13:11.067Z,7.43
2022-10-11T06:13:44.575Z,6.07
2022-10-11T06:14:19.272Z,6.75
2022-10-11T06:14:51.357Z,6.63
2022-10-11T06:15:23.568Z,5.68
2022-10-11T06:15:58.465Z,5.20
2022-10-11T06:16:30.556Z,7.50
2022-10-11T06:17:05.212Z,8.23
2022-10-11T06:17:37.397Z,7.65
2022-10-11T06:18:09.474Z,10.88
2022-10-11T06:18:44.354Z,8.23
2022-10-11T06:19:16.482Z,6.82
2022-10-11T06:19:51.688Z,5.10
2022-10-11T06:20:26.489Z,6.88
2022-10-11T06:20:58.759Z,8.70
2022-10-11T06:21:31.339Z,7.50
2022-10-11T06:22:06.234Z,8.00
2022-10-11T06:22:39.187Z,4.70
2022-10-11T06:23:11.281Z,6.35
2022-10-11T06:23:46.030Z,7.72
2022-10-11T06:24:18.159Z,6.45
2022-10-11T06:24:50.290Z,6.53
2022-10-11T06:25:24.947Z,5.90
2022-10-11T06:25:58.220Z,7.47
2022-10-11T06:26:30.804Z,6.25
2022-10-11T06:27:05.510Z,8.75
2022-10-11T06:27:37.637Z,7.15
2022-10-11T06:28:09.776Z,6.68
2022-10-11T06:28:44.571Z,4.63
2022-10-11T06:29:16.686Z,5.32
2022-10-11T06:29:49.213Z,5.07
2022-10-11T06:30:24.382Z,7.85
2022-10-11T06:30:56.849Z,6.50
2022-10-11T06:31:31.571Z,6.50
2022-10-11T06:32:03.915Z,6.75
2022-10-11T06:32:36.081Z,6.25
2022-10-11T06:33:10.834Z,5.38
2022-10-11T06:33:42.991Z,4.93
2022-10-11T06:34:18.215Z,6.07
2022-10-11T06:34:52.943Z,5.80
2022-10-11T06:35:25.196Z,6.72
2022-10-11T06:36:01.063Z,8.02
2022-10-11T06:36:33.230Z,6.57
2022-10-11T06:37:05.310Z,5.22
2022-10-11T06:37:39.985Z,7.15
2022-10-11T06:38:12.208Z,7.13
2022-10-11T06:38:45.557Z,8.93
2022-10-11T06:39:20.311Z,7.18
2022-10-11T06:39:52.370Z,6.63
2022-10-11T06:40:24.758Z,6.72
2022-10-11T06:40:59.399Z,7.50
2022-10-11T06:41:31.500Z,6.85
2022-10-11T06:42:03.840Z,6.47
2022-10-11T06:42:38.574Z,7.57
2022-10-11T06:43:10.664Z,7.65
2022-10-11T06:43:42.836Z,9.05
2022-10-11T06:44:17.898Z,11.13
2022-10-11T06:44:49.975Z,8.77
2022-10-11T06:45:22.098Z,7.22
2022-10-11T06:46:02.029Z,9.10
2022-10-11T06:46:34.254Z,9.68
2022-10-11T06:47:07.171Z,8.55
2022-10-11T06:47:41.890Z,6.32
2022-10-11T06:48:14.417Z,8.38
2022-10-11T06:48:47.754Z,6.88
2022-10-11T06:49:23.602Z,8.50
2022-10-11T06:49:58.405Z,6.70
2022-10-11T06:50:54.765Z,7.20
2022-10-11T06:51:27.307Z,9.68
2022-10-11T06:51:59.506Z,8.27
2022-10-11T06:52:34.146Z,8.73
2022-10-11T06:53:07.197Z,6.45
2022-10-11T06:53:40.298Z,6.95
2022-10-11T06:54:17.354Z,7.35
2022-10-11T06:54:49.444Z,8.40
2022-10-11T06:55:21.517Z,7.10
2022-10-11T06:55:56.158Z,7.38
2022-10-11T06:56:30.555Z,7.20
2022-10-11T06:57:05.247Z,7.45
2022-10-11T06:57:37.433Z,6.43
2022-10-11T06:58:12.638Z,7.07
2022-10-11T06:58:44.795Z,6.47
2022-10-11T06:59:16.966Z,5.63
2022-10-11T06:59:51.619Z,6.00
2022-10-11T07:00:23.727Z,6.65
2022-10-11T07:00:59.776Z,6.55
2022-10-11T07:01:34.595Z,6.18
2022-10-11T07:02:06.935Z,7.28
2022-10-11T07:02:39.025Z,5.25
2022-10-11T07:03:13.859Z,5.68
2022-10-11T07:03:46.111Z,7.82
2022-10-11T07:04:20.906Z,4.78
2022-10-11T07:04:53.090Z,5.68
2022-10-11T07:05:32.150Z,6.68
2022-10-11T07:06:06.801Z,6.25
2022-10-11T07:06:40.970Z,5.82
2022-10-11T07:07:16.350Z,6.82
2022-10-11T07:07:48.422Z,7.05
2022-10-11T07:08:20.526Z,7.70
2022-10-11T07:08:55.905Z,4.75
2022-10-11T07:09:28.336Z,6.18
2022-10-11T07:10:00.450Z,5.72
2022-10-11T07:10:35.098Z,4.85
2022-10-11T07:11:09.443Z,5.78
2022-10-11T07:11:44.121Z,5.00
2022-10-11T07:12:16.540Z,5.13
2022-10-11T07:12:48.718Z,5.63
2022-10-11T07:13:24.573Z,5.90
2022-10-11T07:13:58.554Z,4.70
2022-10-11T07:14:33.395Z,5.55
2022-10-11T07:15:06.387Z,4.72
2022-10-11T07:15:41.331Z,6.90
2022-10-11T07:16:13.428Z,6.50
2022-10-11T07:16:45.592Z,5.55
2022-10-11T07:17:20.908Z,6.82
2022-10-11T07:17:52.991Z,4.07
2022-10-11T07:18:25.141Z,5.57
2022-10-11T07:19:03.179Z,6.07
2022-10-11T07:19:35.495Z,7.20
2022-10-11T07:20:08.841Z,5.50
2022-10-11T07:20:46.655Z,5.40
2022-10-11T07:21:18.770Z,5.53
2022-10-11T07:21:50.865Z,5.03
2022-10-11T07:22:25.568Z,5.65
2022-10-11T07:22:58.021Z,6.95
2022-10-11T07:23:30.387Z,6.40
2022-10-11T07:24:05.444Z,5.57
2022-10-11T07:24:37.575Z,6.35
2022-10-11T07:25:10.127Z,5.25
2022-10-11T07:25:45.004Z,5.75
2022-10-11T07:26:17.217Z,7.38
2022-10-11T07:26:51.913Z,6.53
2022-10-11T07:27:24.137Z,6.47
2022-10-11T07:27:56.261Z,5.25
2022-10-11T07:28:31.635Z,7.18
2022-10-11T07:29:04.016Z,4.65
2022-10-11T07:29:38.767Z,5.25
2022-10-11T07:30:11.883Z,5.43
2022-10-11T07:30:44.264Z,5.63
2022-10-11T07:31:21.797Z,6.28
2022-10-11T07:31:53.894Z,5.15
2022-10-11T07:32:26.042Z,5.95
2022-10-11T07:33:00.705Z,5.15
2022-10-11T07:33:32.977Z,6.75
2022-10-11T07:34:07.675Z,7.47
2022-10-11T07:34:39.785Z,5.63
2022-10-11T07:35:14.480Z,6.88
2022-10-11T07:35:49.642Z,5.78
2022-10-11T07:36:25.950Z,5.32
2022-10-11T07:36:58.022Z,6.05
2022-10-11T07:37:30.093Z,5.47
2022-10-11T07:38:04.962Z,6.75
2022-10-11T07:38:40.191Z,5.63
2022-10-11T07:39:14.858Z,6.13
2022-10-11T07:39:49.223Z,6.47
2022-10-11T07:40:21.298Z,7.50
2022-10-11T07:40:56.333Z,7.28
2022-10-11T07:41:28.404Z,5.97
2022-10-11T07:42:03.532Z,5.68
2022-10-11T07:42:35.615Z,6.25
2022-10-11T07:43:07.701Z,6.53
2022-10-11T07:43:43.622Z,6.50
2022-10-11T07:44:15.866Z,6.40
2022-10-11T07:44:48.311Z,6.30
2022-10-11T07:45:22.963Z,5.45
2022-10-11T07:45:55.706Z,8.95
2022-10-11T07:46:30.441Z,6.35
2022-10-11T07:47:02.628Z,7.15
2022-10-11T07:47:34.706Z,4.95
2022-10-11T07:48:09.651Z,7.47